Terminal Aerodrome Forecast
Issued by NWS

Home | Current Version | Previous Version | Graphics & Text | Print | Product List | Glossary Off
Versions: 1 2 3 4 5 6 7 8 9 10 11 12 13 14

000
FTUS43 KDDC 300543 RRA
TAFGCK
TAF
KGCK 300543Z 3006/3106 20009KT P6SM SKC
     FM301100 34011KT P6SM SKC
     FM301600 35015G22KT P6SM SKC
     FM310000 03009KT P6SM SKC=

USA.gov is the U.S. government's official web portal to all federal, state and local government web resources and services.